createdAt,value
2018-03-29T00:00:17.978Z,0.00
2018-03-29T00:01:18.128Z,0.00
2018-03-29T00:02:18.277Z,0.00
2018-03-29T00:03:18.424Z,0.00
2018-03-29T00:04:18.573Z,0.00
2018-03-29T00:05:18.718Z,0.00
2018-03-29T00:06:18.864Z,0.00
2018-03-29T00:07:19.011Z,0.00
2018-03-29T00:08:19.162Z,0.00
2018-03-29T00:09:19.362Z,0.00
2018-03-29T00:10:19.452Z,0.00
2018-03-29T00:11:19.600Z,0.00
2018-03-29T00:12:19.745Z,0.00
2018-03-29T00:13:19.892Z,0.00
2018-03-29T00:14:20.036Z,0.00
2018-03-29T00:15:20.181Z,0.00
2018-03-29T00:16:20.329Z,0.00
2018-03-29T00:17:20.476Z,0.00
2018-03-29T00:18:20.622Z,0.00
2018-03-29T00:19:22.604Z,0.00
2018-03-29T00:20:20.888Z,0.00
2018-03-29T00:21:21.035Z,0.00
2018-03-29T00:22:21.183Z,0.00
2018-03-29T00:23:21.332Z,0.00
2018-03-29T00:24:21.477Z,0.00
2018-03-29T00:25:21.659Z,0.00
2018-03-29T00:26:21.773Z,0.00
2018-03-29T00:27:21.921Z,0.00
2018-03-29T00:28:22.066Z,0.00
2018-03-29T00:29:22.215Z,0.00
2018-03-29T00:30:22.358Z,0.00
2018-03-29T00:31:22.504Z,0.00
2018-03-29T00:32:22.652Z,0.00
2018-03-29T00:33:22.799Z,0.00
2018-03-29T00:34:22.946Z,0.00
2018-03-29T00:35:23.090Z,0.00
2018-03-29T00:36:23.240Z,0.00
2018-03-29T00:37:23.385Z,0.00
2018-03-29T00:38:23.537Z,0.00
2018-03-29T00:39:23.680Z,0.00
2018-03-29T00:40:23.826Z,0.00
2018-03-29T00:41:23.973Z,0.00
2018-03-29T00:42:24.129Z,0.00
2018-03-29T00:43:24.268Z,0.00
2018-03-29T00:44:24.413Z,0.00
2018-03-29T00:45:24.560Z,0.00
2018-03-29T00:46:24.711Z,0.00
2018-03-29T00:47:24.860Z,0.00
2018-03-29T00:48:25.006Z,0.00
2018-03-29T00:49:25.158Z,0.00
2018-03-29T00:50:25.299Z,0.00
2018-03-29T00:51:25.446Z,0.00
2018-03-29T00:52:25.593Z,0.00
2018-03-29T00:53:25.736Z,0.00
2018-03-29T00:54:25.883Z,0.00
2018-03-29T00:55:26.031Z,0.00
2018-03-29T00:56:26.177Z,0.00
2018-03-29T00:57:26.324Z,0.00
2018-03-29T00:58:26.467Z,0.00
2018-03-29T00:59:26.618Z,0.00
2018-03-29T01:00:26.765Z,0.00
2018-03-29T01:01:26.910Z,0.00
2018-03-29T01:02:27.055Z,0.00
2018-03-29T01:03:27.204Z,0.00
2018-03-29T01:04:27.356Z,0.00
2018-03-29T01:05:27.499Z,0.00
2018-03-29T01:06:27.651Z,0.00
2018-03-29T01:07:27.795Z,0.00
2018-03-29T01:08:27.942Z,0.00
2018-03-29T01:09:28.081Z,0.00
2018-03-29T01:10:28.227Z,0.00
2018-03-29T01:11:28.374Z,0.00
2018-03-29T01:12:28.520Z,0.00
2018-03-29T01:13:28.665Z,0.00
2018-03-29T01:14:28.812Z,0.00
2018-03-29T01:15:28.961Z,0.00
2018-03-29T01:16:29.106Z,0.00
2018-03-29T01:17:29.254Z,0.00
2018-03-29T01:18:29.401Z,0.00
2018-03-29T01:19:29.550Z,0.00
2018-03-29T01:20:29.694Z,0.00
2018-03-29T01:21:29.844Z,0.00
2018-03-29T01:22:29.992Z,0.00
2018-03-29T01:23:30.141Z,0.00
2018-03-29T01:24:30.287Z,0.00
2018-03-29T01:25:30.434Z,0.00
2018-03-29T01:26:30.580Z,0.00
2018-03-29T01:27:30.733Z,0.00
2018-03-29T01:28:30.871Z,0.00
2018-03-29T01:29:31.025Z,0.00
2018-03-29T01:30:31.166Z,0.00
2018-03-29T01:31:31.316Z,0.00
2018-03-29T01:32:31.463Z,0.00
2018-03-29T01:33:31.604Z,0.00
2018-03-29T01:34:31.751Z,0.00
2018-03-29T01:35:31.901Z,0.00
2018-03-29T01:36:32.048Z,0.00
2018-03-29T01:37:32.192Z,0.00
2018-03-29T01:38:32.340Z,0.00
2018-03-29T01:39:32.488Z,0.00
2018-03-29T01:40:32.635Z,0.00
2018-03-29T01:41:32.782Z,0.00
2018-03-29T01:42:32.927Z,0.00
2018-03-29T01:43:33.074Z,0.00
2018-03-29T01:44:33.221Z,0.00
2018-03-29T01:45:33.370Z,0.00
2018-03-29T01:46:33.516Z,0.00
2018-03-29T01:47:33.663Z,0.00
2018-03-29T01:48:33.812Z,0.00
2018-03-29T01:49:33.957Z,0.00
2018-03-29T01:50:34.103Z,0.00
2018-03-29T01:51:34.247Z,0.00
2018-03-29T01:52:34.393Z,0.00
2018-03-29T01:53:34.539Z,0.00
2018-03-29T01:54:34.690Z,0.00
2018-03-29T01:55:34.835Z,0.00
2018-03-29T01:56:34.983Z,0.00
2018-03-29T01:57:35.129Z,0.00
2018-03-29T01:58:35.276Z,0.00
2018-03-29T01:59:35.423Z,0.00
2018-03-29T02:00:35.571Z,0.00
2018-03-29T02:01:35.716Z,0.00
2018-03-29T02:02:35.863Z,0.00
2018-03-29T02:03:36.012Z,0.00
2018-03-29T02:04:36.153Z,0.00
2018-03-29T02:05:36.299Z,0.00
2018-03-29T02:06:36.446Z,0.00
2018-03-29T02:07:36.643Z,0.00
2018-03-29T02:08:36.744Z,0.00
2018-03-29T02:09:36.888Z,0.00
2018-03-29T02:10:37.028Z,0.00
2018-03-29T02:11:37.172Z,0.00
2018-03-29T02:12:37.319Z,0.00
2018-03-29T02:13:37.471Z,0.00
2018-03-29T02:14:37.613Z,0.00
2018-03-29T02:15:37.759Z,0.00
2018-03-29T02:16:37.909Z,0.00
2018-03-29T02:17:38.052Z,0.00
2018-03-29T02:18:38.198Z,0.00
2018-03-29T02:19:38.342Z,0.00
2018-03-29T02:20:38.489Z,0.00
2018-03-29T02:21:38.635Z,0.00
2018-03-29T02:22:38.785Z,0.00
2018-03-29T02:23:38.931Z,0.00
2018-03-29T02:24:39.073Z,0.00
2018-03-29T02:25:39.221Z,0.00
2018-03-29T02:26:39.369Z,0.00
2018-03-29T02:27:39.511Z,0.00
2018-03-29T02:28:39.658Z,0.00
2018-03-29T02:29:39.807Z,0.00
2018-03-29T02:30:39.951Z,0.00
2018-03-29T02:31:40.101Z,0.00
2018-03-29T02:32:40.249Z,0.00
2018-03-29T02:33:40.395Z,0.00
2018-03-29T02:34:40.541Z,0.00
2018-03-29T02:35:40.684Z,0.00
2018-03-29T02:36:40.834Z,0.00
2018-03-29T02:37:40.979Z,0.00
2018-03-29T02:38:41.127Z,0.00
2018-03-29T02:39:41.274Z,0.00
2018-03-29T02:40:41.421Z,0.00
2018-03-29T02:41:41.570Z,0.00
2018-03-29T02:42:41.713Z,0.00
2018-03-29T02:43:41.855Z,0.00
2018-03-29T02:44:42.004Z,0.00
2018-03-29T02:45:42.154Z,0.00
2018-03-29T02:46:42.296Z,0.00
2018-03-29T02:47:42.442Z,0.00
2018-03-29T02:48:42.587Z,0.00
2018-03-29T02:49:42.733Z,0.00
2018-03-29T02:50:42.882Z,0.00
2018-03-29T02:51:43.049Z,0.00
2018-03-29T02:52:43.178Z,0.00
2018-03-29T02:53:43.328Z,0.00
2018-03-29T02:54:43.475Z,0.00
2018-03-29T02:55:43.625Z,0.00
2018-03-29T02:56:43.767Z,0.00
2018-03-29T02:57:43.911Z,0.00
2018-03-29T02:58:44.058Z,0.00
2018-03-29T02:59:44.206Z,0.00
2018-03-29T03:00:44.348Z,0.00
2018-03-29T03:01:44.495Z,0.00
2018-03-29T03:02:44.640Z,0.00
2018-03-29T03:03:44.787Z,0.00
2018-03-29T03:04:44.933Z,0.00
2018-03-29T03:05:45.082Z,0.00
2018-03-29T03:06:45.229Z,0.00
2018-03-29T03:07:45.377Z,0.00
2018-03-29T03:08:45.517Z,0.00
2018-03-29T03:09:45.664Z,0.00
2018-03-29T03:10:45.819Z,0.00
2018-03-29T03:11:45.962Z,0.00
2018-03-29T03:12:46.106Z,0.00
2018-03-29T03:13:46.255Z,0.00
2018-03-29T03:14:46.397Z,0.00
2018-03-29T03:15:46.544Z,0.00
2018-03-29T03:16:46.693Z,0.00
2018-03-29T03:17:46.833Z,0.00
2018-03-29T03:18:46.981Z,0.00
2018-03-29T03:19:47.130Z,0.00
2018-03-29T03:20:47.270Z,0.00
2018-03-29T03:21:47.418Z,0.00
2018-03-29T03:22:47.564Z,0.00
2018-03-29T03:23:47.712Z,0.00
2018-03-29T03:24:47.856Z,0.00
2018-03-29T03:25:48.002Z,0.00
2018-03-29T03:26:48.149Z,0.00
2018-03-29T03:27:48.299Z,0.00
2018-03-29T03:28:48.445Z,0.00
2018-03-29T03:29:48.590Z,0.00
2018-03-29T03:30:48.745Z,0.00
2018-03-29T03:31:48.884Z,0.00
2018-03-29T03:32:49.030Z,0.00
2018-03-29T03:33:49.176Z,0.00
2018-03-29T03:34:49.323Z,0.00
2018-03-29T03:35:49.474Z,0.00
2018-03-29T03:36:49.616Z,0.00
2018-03-29T03:37:49.761Z,0.00
2018-03-29T03:38:49.910Z,0.00
2018-03-29T03:39:50.057Z,0.00
2018-03-29T03:40:50.214Z,0.00
2018-03-29T03:41:50.361Z,0.00
2018-03-29T03:42:50.504Z,0.00
2018-03-29T03:43:50.647Z,0.00
2018-03-29T03:44:50.792Z,0.00
2018-03-29T03:45:50.949Z,0.00
2018-03-29T03:46:51.098Z,0.00
2018-03-29T03:47:51.244Z,0.00
2018-03-29T03:48:51.389Z,0.00
2018-03-29T03:49:51.531Z,0.00
2018-03-29T03:50:51.678Z,0.00
2018-03-29T03:51:51.832Z,0.00
2018-03-29T03:52:51.971Z,0.00
2018-03-29T03:53:52.121Z,0.00
2018-03-29T03:54:52.265Z,0.00
2018-03-29T03:55:52.410Z,0.00
2018-03-29T03:56:52.553Z,0.00
2018-03-29T03:57:52.707Z,0.00
2018-03-29T03:58:52.847Z,0.00
2018-03-29T03:59:52.996Z,0.00
2018-03-29T04:00:53.139Z,0.00
2018-03-29T04:01:53.286Z,0.00
2018-03-29T04:02:53.430Z,0.00
2018-03-29T04:03:53.571Z,0.00
2018-03-29T04:04:53.719Z,0.00
2018-03-29T04:05:53.864Z,0.00
2018-03-29T04:06:54.012Z,0.00
2018-03-29T04:07:54.158Z,0.00
2018-03-29T04:08:54.308Z,0.00
2018-03-29T04:09:54.451Z,0.00
2018-03-29T04:10:54.602Z,0.00
2018-03-29T04:11:54.744Z,0.00
2018-03-29T04:12:54.894Z,0.00
2018-03-29T04:13:55.039Z,0.00
2018-03-29T04:14:55.186Z,0.00
2018-03-29T04:15:55.332Z,0.00
2018-03-29T04:16:55.479Z,0.00
2018-03-29T04:17:55.629Z,0.00
2018-03-29T04:18:55.776Z,0.00
2018-03-29T04:19:55.965Z,0.00
2018-03-29T04:20:56.078Z,0.00
2018-03-29T04:21:56.212Z,0.00
2018-03-29T04:22:56.358Z,0.00
2018-03-29T04:23:56.506Z,0.00
2018-03-29T04:24:56.655Z,0.00
2018-03-29T04:25:56.799Z,0.00
2018-03-29T04:26:56.993Z,0.00
2018-03-29T04:27:57.093Z,0.00
2018-03-29T04:28:57.240Z,0.00
2018-03-29T04:29:57.385Z,0.00
2018-03-29T04:30:57.535Z,0.00
2018-03-29T04:31:57.683Z,0.00
2018-03-29T04:32:57.828Z,0.00
2018-03-29T04:33:57.975Z,0.00
2018-03-29T04:34:58.120Z,0.00
2018-03-29T04:35:58.274Z,0.00
2018-03-29T04:36:58.425Z,0.00
2018-03-29T04:37:58.572Z,0.00
2018-03-29T04:38:58.717Z,0.00
2018-03-29T04:39:58.864Z,0.00
2018-03-29T04:40:59.016Z,0.00
2018-03-29T04:41:59.160Z,0.00
2018-03-29T04:42:59.302Z,0.00
2018-03-29T04:43:59.447Z,0.00
2018-03-29T04:44:59.595Z,0.00
2018-03-29T04:45:59.744Z,0.00
2018-03-29T04:46:59.889Z,0.00
2018-03-29T04:48:00.035Z,0.00
2018-03-29T04:49:00.183Z,0.00
2018-03-29T04:50:00.329Z,0.00
2018-03-29T04:51:00.481Z,0.00
2018-03-29T04:52:00.625Z,0.00
2018-03-29T04:53:00.772Z,0.00
2018-03-29T04:54:00.917Z,0.00
2018-03-29T04:55:01.066Z,0.00
2018-03-29T04:56:01.212Z,5.63
2018-03-29T04:57:01.357Z,5.63
2018-03-29T04:58:01.505Z,5.63
2018-03-29T04:59:01.652Z,5.63
2018-03-29T05:00:01.799Z,5.63
2018-03-29T05:01:01.946Z,5.63
2018-03-29T05:02:02.098Z,5.63
2018-03-29T05:03:02.244Z,5.63
2018-03-29T05:04:02.387Z,11.25
2018-03-29T05:05:02.537Z,11.25
2018-03-29T05:06:02.679Z,11.25
2018-03-29T05:07:02.825Z,11.25
2018-03-29T05:08:02.971Z,11.25
2018-03-29T05:09:03.119Z,16.88
2018-03-29T05:10:03.266Z,16.88
2018-03-29T05:11:03.411Z,16.88
2018-03-29T05:12:03.556Z,16.88
2018-03-29T05:13:03.702Z,16.88
2018-03-29T05:14:03.850Z,16.88
2018-03-29T05:15:03.999Z,16.88
2018-03-29T05:16:04.146Z,22.50
2018-03-29T05:17:04.291Z,22.50
2018-03-29T05:18:04.440Z,22.50
2018-03-29T05:19:04.582Z,22.50
2018-03-29T05:20:04.728Z,28.13
2018-03-29T05:21:04.883Z,28.13
2018-03-29T05:22:05.024Z,28.13
2018-03-29T05:23:05.175Z,33.75
2018-03-29T05:24:05.326Z,33.75
2018-03-29T05:25:05.466Z,33.75
2018-03-29T05:26:05.607Z,33.75
2018-03-29T05:27:05.755Z,39.38
2018-03-29T05:28:05.902Z,39.38
2018-03-29T05:29:06.049Z,45.00
2018-03-29T05:30:06.196Z,45.00
2018-03-29T05:31:06.340Z,50.63
2018-03-29T05:32:06.486Z,56.25
2018-03-29T05:33:06.644Z,61.88
2018-03-29T05:34:06.784Z,61.88
2018-03-29T05:35:06.920Z,61.88
2018-03-29T05:36:07.066Z,61.88
2018-03-29T05:37:07.219Z,61.88
2018-03-29T05:38:07.366Z,67.50
2018-03-29T05:39:07.509Z,67.50
2018-03-29T05:40:07.675Z,67.50
2018-03-29T05:41:07.808Z,67.50
2018-03-29T05:42:07.961Z,61.88
2018-03-29T05:43:08.103Z,61.88
2018-03-29T05:44:08.248Z,56.25
2018-03-29T05:45:08.394Z,56.25
2018-03-29T05:46:08.539Z,56.25
2018-03-29T05:47:08.683Z,56.25
2018-03-29T05:48:08.831Z,61.88
2018-03-29T05:49:08.977Z,67.50
2018-03-29T05:50:09.118Z,73.13
2018-03-29T05:51:09.268Z,73.13
2018-03-29T05:52:09.417Z,73.13
2018-03-29T05:53:09.571Z,73.13
2018-03-29T05:54:09.718Z,78.75
2018-03-29T05:55:09.864Z,84.38
2018-03-29T05:56:10.012Z,90.00
2018-03-29T05:57:10.156Z,84.38
2018-03-29T05:58:10.303Z,84.38
2018-03-29T05:59:10.449Z,84.38
2018-03-29T06:00:10.596Z,90.00
2018-03-29T06:01:10.743Z,90.00
2018-03-29T06:02:10.891Z,90.00
2018-03-29T06:03:11.047Z,90.00
2018-03-29T06:04:11.183Z,95.63
2018-03-29T06:05:11.330Z,95.63
2018-03-29T06:06:11.478Z,95.63
2018-03-29T06:07:11.664Z,95.63
2018-03-29T06:08:11.774Z,90.00
2018-03-29T06:09:11.918Z,90.00
2018-03-29T06:10:12.071Z,90.00
2018-03-29T06:11:12.218Z,95.63
2018-03-29T06:12:12.361Z,101.25
2018-03-29T06:13:12.508Z,112.50
2018-03-29T06:14:12.654Z,123.75
2018-03-29T06:15:12.804Z,135.00
2018-03-29T06:16:12.953Z,140.63
2018-03-29T06:17:13.097Z,140.63
2018-03-29T06:18:13.245Z,140.63
2018-03-29T06:19:13.394Z,151.88
2018-03-29T06:20:13.537Z,151.88
2018-03-29T06:21:13.686Z,146.25
2018-03-29T06:22:13.830Z,135.00
2018-03-29T06:23:13.996Z,123.75
2018-03-29T06:24:14.125Z,118.13
2018-03-29T06:25:14.274Z,112.50
2018-03-29T06:26:14.419Z,118.13
2018-03-29T06:27:14.567Z,129.38
2018-03-29T06:28:14.714Z,146.25
2018-03-29T06:29:14.859Z,146.25
2018-03-29T06:30:15.005Z,146.25
2018-03-29T06:31:15.150Z,140.63
2018-03-29T06:32:15.298Z,135.00
2018-03-29T06:33:15.444Z,129.38
2018-03-29T06:34:15.591Z,129.38
2018-03-29T06:35:15.741Z,140.63
2018-03-29T06:36:15.889Z,151.88
2018-03-29T06:37:16.034Z,163.13
2018-03-29T06:38:16.181Z,163.13
2018-03-29T06:39:16.331Z,151.88
2018-03-29T06:40:16.477Z,146.25
2018-03-29T06:41:16.620Z,146.25
2018-03-29T06:42:16.768Z,140.63
2018-03-29T06:43:16.917Z,146.25
2018-03-29T06:44:17.062Z,146.25
2018-03-29T06:45:17.211Z,146.25
2018-03-29T06:46:17.357Z,146.25
2018-03-29T06:47:17.506Z,140.63
2018-03-29T06:48:17.656Z,146.25
2018-03-29T06:49:17.802Z,151.88
2018-03-29T06:50:17.948Z,151.88
2018-03-29T06:51:18.095Z,146.25
2018-03-29T06:52:18.244Z,146.25
2018-03-29T06:53:18.389Z,146.25
2018-03-29T06:54:18.540Z,140.63
2018-03-29T06:55:18.686Z,135.00
2018-03-29T06:56:18.833Z,140.63
2018-03-29T06:57:18.978Z,163.13
2018-03-29T06:58:19.124Z,180.00
2018-03-29T06:59:19.271Z,196.88
2018-03-29T07:00:19.418Z,213.75
2018-03-29T07:01:19.567Z,219.38
2018-03-29T07:02:19.713Z,219.38
2018-03-29T07:03:19.860Z,225.00
2018-03-29T07:04:20.007Z,225.00
2018-03-29T07:05:20.154Z,236.25
2018-03-29T07:06:20.303Z,247.50
2018-03-29T07:07:20.459Z,236.25
2018-03-29T07:08:20.599Z,213.75
2018-03-29T07:09:20.749Z,230.63
2018-03-29T07:10:20.896Z,253.13
2018-03-29T07:11:21.076Z,270.00
2018-03-29T07:12:21.223Z,286.88
2018-03-29T07:13:21.372Z,303.75
2018-03-29T07:14:21.522Z,320.63
2018-03-29T07:15:21.666Z,343.13
2018-03-29T07:16:21.815Z,365.63
2018-03-29T07:17:21.959Z,376.88
2018-03-29T07:18:22.109Z,360.00
2018-03-29T07:19:22.258Z,337.50
2018-03-29T07:20:22.405Z,320.63
2018-03-29T07:21:22.554Z,326.25
2018-03-29T07:22:22.698Z,320.63
2018-03-29T07:23:22.850Z,309.38
2018-03-29T07:24:22.992Z,298.13
2018-03-29T07:25:23.125Z,292.50
2018-03-29T07:26:23.285Z,315.00
2018-03-29T07:27:23.423Z,337.50
2018-03-29T07:28:23.569Z,365.63
2018-03-29T07:29:23.718Z,376.88
2018-03-29T07:30:23.867Z,388.13
2018-03-29T07:31:24.015Z,393.75
2018-03-29T07:32:24.165Z,399.38
2018-03-29T07:33:24.314Z,405.00
2018-03-29T07:34:24.462Z,405.00
2018-03-29T07:35:24.608Z,382.50
2018-03-29T07:36:24.765Z,388.13
2018-03-29T07:37:24.911Z,405.00
2018-03-29T07:38:25.050Z,416.25
2018-03-29T07:39:25.199Z,416.25
2018-03-29T07:40:25.345Z,416.25
2018-03-29T07:41:25.494Z,399.38
2018-03-29T07:42:25.650Z,393.75
2018-03-29T07:43:25.791Z,388.13
2018-03-29T07:44:25.942Z,410.63
2018-03-29T07:45:26.088Z,427.50
2018-03-29T07:46:26.239Z,438.75
2018-03-29T07:47:26.384Z,438.75
2018-03-29T07:48:26.529Z,433.13
2018-03-29T07:49:26.677Z,438.75
2018-03-29T07:50:26.826Z,444.38
2018-03-29T07:51:26.972Z,444.38
2018-03-29T07:52:27.126Z,444.38
2018-03-29T07:53:27.273Z,444.38
2018-03-29T07:54:27.410Z,444.38
2018-03-29T07:55:27.555Z,444.38
2018-03-29T07:56:27.700Z,438.75
2018-03-29T07:57:27.851Z,438.75
2018-03-29T07:58:28.002Z,410.63
2018-03-29T07:59:28.151Z,371.25
2018-03-29T08:00:28.315Z,320.63
2018-03-29T08:01:28.447Z,298.13
2018-03-29T08:02:28.597Z,343.13
2018-03-29T08:03:28.744Z,354.38
2018-03-29T08:04:28.894Z,365.63
2018-03-29T08:05:29.040Z,354.38
2018-03-29T08:06:29.185Z,331.88
2018-03-29T08:07:29.333Z,326.25
2018-03-29T08:08:29.482Z,331.88
2018-03-29T08:09:29.631Z,343.13
2018-03-29T08:10:29.779Z,348.75
2018-03-29T08:11:29.926Z,354.38
2018-03-29T08:12:30.076Z,371.25
2018-03-29T08:13:30.227Z,405.00
2018-03-29T08:14:30.374Z,450.00
2018-03-29T08:15:30.522Z,472.50
2018-03-29T08:16:30.673Z,500.63
2018-03-29T08:17:30.817Z,495.00
2018-03-29T08:18:30.967Z,511.88
2018-03-29T08:19:31.116Z,511.88
2018-03-29T08:20:31.267Z,523.13
2018-03-29T08:21:31.415Z,528.75
2018-03-29T08:22:31.566Z,534.38
2018-03-29T08:23:31.714Z,523.13
2018-03-29T08:24:31.865Z,534.38
2018-03-29T08:25:32.010Z,540.00
2018-03-29T08:26:32.163Z,534.38
2018-03-29T08:27:32.313Z,506.25
2018-03-29T08:28:32.459Z,500.63
2018-03-29T08:29:32.606Z,489.38
2018-03-29T08:30:32.756Z,466.88
2018-03-29T08:31:32.906Z,461.25
2018-03-29T08:32:33.056Z,466.88
2018-03-29T08:33:33.205Z,472.50
2018-03-29T08:34:33.358Z,472.50
2018-03-29T08:35:33.510Z,472.50
2018-03-29T08:36:33.658Z,478.13
2018-03-29T08:37:33.807Z,478.13
2018-03-29T08:38:33.957Z,500.63
2018-03-29T08:39:34.106Z,556.88
2018-03-29T08:40:34.254Z,528.75
2018-03-29T08:41:34.403Z,511.88
2018-03-29T08:42:34.552Z,511.88
2018-03-29T08:43:34.706Z,495.00
2018-03-29T08:44:34.854Z,483.75
2018-03-29T08:45:35.003Z,478.13
2018-03-29T08:46:35.155Z,489.38
2018-03-29T08:47:35.304Z,506.25
2018-03-29T08:48:35.454Z,523.13
2018-03-29T08:49:35.600Z,540.00
2018-03-29T08:50:35.749Z,556.88
2018-03-29T08:51:35.901Z,556.88
2018-03-29T08:52:36.050Z,545.63
2018-03-29T08:53:36.224Z,523.13
2018-03-29T08:54:36.361Z,523.13
2018-03-29T08:55:36.498Z,528.75
2018-03-29T08:56:36.648Z,528.75
2018-03-29T08:57:36.795Z,528.75
2018-03-29T08:58:36.950Z,534.38
2018-03-29T08:59:37.103Z,534.38
2018-03-29T09:00:37.254Z,534.38
2018-03-29T09:01:37.404Z,545.63
2018-03-29T09:02:37.553Z,556.88
2018-03-29T09:03:37.706Z,556.88
2018-03-29T09:04:37.856Z,562.50
2018-03-29T09:05:38.000Z,562.50
2018-03-29T09:06:38.150Z,568.13
2018-03-29T09:07:38.301Z,568.13
2018-03-29T09:08:38.452Z,579.38
2018-03-29T09:09:38.602Z,579.38
2018-03-29T09:10:38.750Z,573.75
2018-03-29T09:11:38.899Z,568.13
2018-03-29T09:12:39.049Z,568.13
2018-03-29T09:13:39.199Z,573.75
2018-03-29T09:14:39.349Z,573.75
2018-03-29T09:15:39.501Z,573.75
2018-03-29T09:16:39.650Z,573.75
2018-03-29T09:17:39.801Z,562.50
2018-03-29T09:18:39.955Z,556.88
2018-03-29T09:19:40.097Z,556.88
2018-03-29T09:20:40.250Z,556.88
2018-03-29T09:21:40.402Z,556.88
2018-03-29T09:22:40.547Z,562.50
2018-03-29T09:23:40.695Z,562.50
2018-03-29T09:24:40.846Z,562.50
2018-03-29T09:25:40.997Z,540.00
2018-03-29T09:26:41.148Z,540.00
2018-03-29T09:27:41.297Z,551.25
2018-03-29T09:28:41.448Z,585.00
2018-03-29T09:29:41.595Z,596.25
2018-03-29T09:30:41.747Z,590.63
2018-03-29T09:31:41.897Z,607.50
2018-03-29T09:32:42.049Z,562.50
2018-03-29T09:33:42.196Z,523.13
2018-03-29T09:34:42.347Z,556.88
2018-03-29T09:35:42.497Z,601.88
2018-03-29T09:36:42.653Z,624.38
2018-03-29T09:37:42.793Z,691.88
2018-03-29T09:38:42.945Z,562.50
2018-03-29T09:39:43.105Z,528.75
2018-03-29T09:40:43.250Z,534.38
2018-03-29T09:41:43.395Z,568.13
2018-03-29T09:42:43.549Z,613.13
2018-03-29T09:43:43.708Z,697.50
2018-03-29T09:44:43.851Z,590.63
2018-03-29T09:45:44.002Z,590.63
2018-03-29T09:46:44.153Z,607.50
2018-03-29T09:47:44.332Z,618.75
2018-03-29T09:48:44.453Z,759.38
2018-03-29T09:49:44.602Z,646.88
2018-03-29T09:50:44.751Z,697.50
2018-03-29T09:51:44.902Z,562.50
2018-03-29T09:52:45.052Z,534.38
2018-03-29T09:53:45.210Z,540.00
2018-03-29T09:54:45.356Z,540.00
2018-03-29T09:55:45.505Z,551.25
2018-03-29T09:56:45.656Z,590.63
2018-03-29T09:57:45.804Z,613.13
2018-03-29T09:58:45.954Z,596.25
2018-03-29T09:59:46.104Z,573.75
2018-03-29T10:00:46.249Z,466.88
2018-03-29T10:01:46.397Z,438.75
2018-03-29T10:02:46.547Z,455.63
2018-03-29T10:03:46.708Z,478.13
2018-03-29T10:04:46.838Z,438.75
2018-03-29T10:05:46.989Z,478.13
2018-03-29T10:06:47.144Z,568.13
2018-03-29T10:07:47.293Z,551.25
2018-03-29T10:08:47.443Z,568.13
2018-03-29T10:09:47.593Z,556.88
2018-03-29T10:10:47.741Z,511.88
2018-03-29T10:11:47.890Z,472.50
2018-03-29T10:12:48.044Z,427.50
2018-03-29T10:13:48.193Z,405.00
2018-03-29T10:14:48.347Z,427.50
2018-03-29T10:15:48.493Z,466.88
2018-03-29T10:16:48.644Z,478.13
2018-03-29T10:17:48.795Z,483.75
2018-03-29T10:18:48.952Z,483.75
2018-03-29T10:19:49.094Z,478.13
2018-03-29T10:20:49.245Z,478.13
2018-03-29T10:21:49.394Z,472.50
2018-03-29T10:22:49.543Z,455.63
2018-03-29T10:23:49.692Z,450.00
2018-03-29T10:24:49.843Z,461.25
2018-03-29T10:25:49.989Z,483.75
2018-03-29T10:26:50.141Z,495.00
2018-03-29T10:27:50.293Z,500.63
2018-03-29T10:28:50.441Z,500.63
2018-03-29T10:29:50.592Z,495.00
2018-03-29T10:30:50.741Z,511.88
2018-03-29T10:31:50.889Z,523.13
2018-03-29T10:32:51.041Z,483.75
2018-03-29T10:33:51.218Z,466.88
2018-03-29T10:34:51.367Z,489.38
2018-03-29T10:35:51.545Z,528.75
2018-03-29T10:36:51.666Z,562.50
2018-03-29T10:37:51.818Z,596.25
2018-03-29T10:38:51.967Z,613.13
2018-03-29T10:39:52.119Z,618.75
2018-03-29T10:40:52.268Z,618.75
2018-03-29T10:41:52.416Z,579.38
2018-03-29T10:42:52.567Z,523.13
2018-03-29T10:43:52.717Z,489.38
2018-03-29T10:44:52.867Z,489.38
2018-03-29T10:45:53.018Z,511.88
2018-03-29T10:46:53.163Z,534.38
2018-03-29T10:47:53.317Z,551.25
2018-03-29T10:48:53.466Z,568.13
2018-03-29T10:49:53.617Z,579.38
2018-03-29T10:50:53.765Z,596.25
2018-03-29T10:51:53.918Z,618.75
2018-03-29T10:52:54.070Z,630.00
2018-03-29T10:53:54.217Z,618.75
2018-03-29T10:54:54.368Z,607.50
2018-03-29T10:55:54.516Z,585.00
2018-03-29T10:56:54.672Z,556.88
2018-03-29T10:57:54.827Z,528.75
2018-03-29T10:58:54.972Z,506.25
2018-03-29T10:59:55.121Z,511.88
2018-03-29T11:00:55.275Z,517.50
2018-03-29T11:01:55.423Z,495.00
2018-03-29T11:02:55.574Z,461.25
2018-03-29T11:03:55.722Z,416.25
2018-03-29T11:04:55.875Z,388.13
2018-03-29T11:05:56.021Z,371.25
2018-03-29T11:06:56.173Z,365.63
2018-03-29T11:07:56.324Z,371.25
2018-03-29T11:08:56.475Z,382.50
2018-03-29T11:09:56.623Z,399.38
2018-03-29T11:10:56.774Z,410.63
2018-03-29T11:11:56.927Z,427.50
2018-03-29T11:12:57.078Z,421.88
2018-03-29T11:13:57.229Z,416.25
2018-03-29T11:14:57.384Z,427.50
2018-03-29T11:15:57.528Z,421.88
2018-03-29T11:16:57.700Z,405.00
2018-03-29T11:17:57.830Z,382.50
2018-03-29T11:18:57.977Z,354.38
2018-03-29T11:19:58.129Z,320.63
2018-03-29T11:20:58.295Z,309.38
2018-03-29T11:21:58.423Z,303.75
2018-03-29T11:22:58.571Z,309.38
2018-03-29T11:23:58.729Z,331.88
2018-03-29T11:24:58.888Z,354.38
2018-03-29T11:25:59.026Z,382.50
2018-03-29T11:26:59.223Z,382.50
2018-03-29T11:27:59.324Z,354.38
2018-03-29T11:28:59.473Z,326.25
2018-03-29T11:29:59.623Z,331.88
2018-03-29T11:30:59.773Z,360.00
2018-03-29T11:31:59.923Z,405.00
2018-03-29T11:33:00.074Z,444.38
2018-03-29T11:34:00.222Z,495.00
2018-03-29T11:35:00.372Z,528.75
2018-03-29T11:36:00.522Z,540.00
2018-03-29T11:37:00.673Z,534.38
2018-03-29T11:38:00.825Z,551.25
2018-03-29T11:39:00.975Z,573.75
2018-03-29T11:40:01.127Z,585.00
2018-03-29T11:41:01.278Z,596.25
2018-03-29T11:42:01.427Z,601.88
2018-03-29T11:43:01.579Z,601.88
2018-03-29T11:44:01.733Z,607.50
2018-03-29T11:45:01.884Z,613.13
2018-03-29T11:46:02.037Z,630.00
2018-03-29T11:47:02.227Z,635.63
2018-03-29T11:48:02.453Z,618.75
2018-03-29T11:49:02.472Z,590.63
2018-03-29T11:50:02.626Z,568.13
2018-03-29T11:51:02.780Z,534.38
2018-03-29T11:52:02.933Z,506.25
2018-03-29T11:53:03.068Z,489.38
2018-03-29T11:54:03.226Z,483.75
2018-03-29T11:55:03.393Z,455.63
2018-03-29T11:56:03.515Z,410.63
2018-03-29T11:57:03.673Z,360.00
2018-03-29T11:58:03.814Z,315.00
2018-03-29T11:59:03.965Z,298.13
2018-03-29T12:00:04.116Z,326.25
2018-03-29T12:01:04.275Z,371.25
2018-03-29T12:02:04.421Z,421.88
2018-03-29T12:03:04.601Z,466.88
2018-03-29T12:04:04.724Z,517.50
2018-03-29T12:05:04.948Z,545.63
2018-03-29T12:06:05.026Z,556.88
2018-03-29T12:07:05.174Z,573.75
2018-03-29T12:08:05.325Z,613.13
2018-03-29T12:09:05.494Z,641.25
2018-03-29T12:10:05.626Z,635.63
2018-03-29T12:11:05.778Z,703.13
2018-03-29T12:12:05.926Z,697.50
2018-03-29T12:13:06.074Z,787.50
2018-03-29T12:14:06.229Z,776.25
2018-03-29T12:15:06.415Z,748.13
2018-03-29T12:16:06.531Z,748.13
2018-03-29T12:17:06.752Z,753.75
2018-03-29T12:18:06.783Z,697.50
2018-03-29T12:19:06.938Z,753.75
2018-03-29T12:20:07.087Z,759.38
2018-03-29T12:21:07.236Z,815.63
2018-03-29T12:22:07.387Z,714.38
2018-03-29T12:23:07.548Z,748.13
2018-03-29T12:24:07.693Z,753.75
2018-03-29T12:25:07.841Z,810.00
2018-03-29T12:26:07.994Z,691.88
2018-03-29T12:27:08.151Z,742.50
2018-03-29T12:28:08.300Z,804.38
2018-03-29T12:29:08.450Z,652.50
2018-03-29T12:30:08.604Z,736.88
2018-03-29T12:31:08.760Z,669.38
2018-03-29T12:32:08.910Z,613.13
2018-03-29T12:33:09.137Z,590.63
2018-03-29T12:34:09.229Z,658.13
2018-03-29T12:35:09.352Z,646.88
2018-03-29T12:36:09.505Z,714.38
2018-03-29T12:37:09.653Z,720.00
2018-03-29T12:38:09.811Z,590.63
2018-03-29T12:39:09.985Z,810.00
2018-03-29T12:40:10.107Z,866.25
2018-03-29T12:41:10.259Z,900.00
2018-03-29T12:42:10.412Z,916.88
2018-03-29T12:43:10.564Z,916.88
2018-03-29T12:44:10.717Z,922.50
2018-03-29T12:45:10.870Z,905.63
2018-03-29T12:46:11.023Z,911.25
2018-03-29T12:47:11.175Z,883.13
2018-03-29T12:48:11.327Z,832.50
2018-03-29T12:49:11.479Z,753.75
2018-03-29T12:50:11.635Z,624.38
2018-03-29T12:51:11.788Z,613.13